sensor_id;sensor_type;location;lat;lon;timestamp;pressure;altitude;pressure_sealevel;temperature;humidity
77572;BME280;67214;47.454;18.966;2023-09-19T00:00:36;99679.89;;;22.18;60.95
77572;BME280;67214;47.454;18.966;2023-09-19T00:03:04;99667.65;;;22.15;60.84
77572;BME280;67214;47.454;18.966;2023-09-19T00:05:37;99678.67;;;22.07;61.05
77572;BME280;67214;47.454;18.966;2023-09-19T00:08:09;99681.80;;;22.04;61.42
77572;BME280;67214;47.454;18.966;2023-09-19T00:10:36;99681.39;;;22.01;61.55
77572;BME280;67214;47.454;18.966;2023-09-19T00:13:05;99670.78;;;21.99;61.97
77572;BME280;67214;47.454;18.966;2023-09-19T00:15:38;99679.70;;;21.93;62.08
77572;BME280;67214;47.454;18.966;2023-09-19T00:18:06;99673.18;;;21.92;62.09
77572;BME280;67214;47.454;18.966;2023-09-19T00:20:38;99672.30;;;21.85;62.92
77572;BME280;67214;47.454;18.966;2023-09-19T00:23:06;99672.20;;;21.82;62.58
77572;BME280;67214;47.454;18.966;2023-09-19T00:25:36;99670.87;;;21.75;62.82
77572;BME280;67214;47.454;18.966;2023-09-19T00:28:04;99666.80;;;21.69;63.58
77572;BME280;67214;47.454;18.966;2023-09-19T00:30:34;99673.34;;;21.77;62.91
77572;BME280;67214;47.454;18.966;2023-09-19T00:33:02;99671.36;;;21.68;63.52
77572;BME280;67214;47.454;18.966;2023-09-19T00:35:31;99670.22;;;21.60;63.74
77572;BME280;67214;47.454;18.966;2023-09-19T00:37:59;99660.35;;;21.57;64.37
77572;BME280;67214;47.454;18.966;2023-09-19T00:40:28;99662.55;;;21.51;64.47
77572;BME280;67214;47.454;18.966;2023-09-19T00:42:58;99664.11;;;21.56;64.21
77572;BME280;67214;47.454;18.966;2023-09-19T00:45:28;99672.59;;;21.53;64.49
77572;BME280;67214;47.454;18.966;2023-09-19T00:47:56;99664.50;;;21.46;64.87
77572;BME280;67214;47.454;18.966;2023-09-19T00:50:25;99663.58;;;21.43;65.03
77572;BME280;67214;47.454;18.966;2023-09-19T00:52:55;99663.03;;;21.30;65.79
77572;BME280;67214;47.454;18.966;2023-09-19T00:55:24;99668.20;;;21.32;65.19
77572;BME280;67214;47.454;18.966;2023-09-19T00:57:52;99663.86;;;21.31;65.56
77572;BME280;67214;47.454;18.966;2023-09-19T01:00:21;99671.31;;;21.29;65.80
77572;BME280;67214;47.454;18.966;2023-09-19T01:02:50;99659.47;;;21.23;66.62
77572;BME280;67214;47.454;18.966;2023-09-19T01:05:17;99663.61;;;21.19;66.37
77572;BME280;67214;47.454;18.966;2023-09-19T01:07:45;99668.06;;;21.16;66.96
77572;BME280;67214;47.454;18.966;2023-09-19T01:10:17;99663.92;;;21.14;66.87
77572;BME280;67214;47.454;18.966;2023-09-19T01:15:53;99663.85;;;21.07;68.23
77572;BME280;67214;47.454;18.966;2023-09-19T01:29:23;99659.52;;;21.06;69.15
77572;BME280;67214;47.454;18.966;2023-09-19T01:31:49;99662.92;;;21.04;69.44
77572;BME280;67214;47.454;18.966;2023-09-19T01:34:20;99661.38;;;21.06;68.89
77572;BME280;67214;47.454;18.966;2023-09-19T01:36:48;99650.69;;;21.08;67.97
77572;BME280;67214;47.454;18.966;2023-09-19T01:39:15;99647.48;;;21.09;68.41
77572;BME280;67214;47.454;18.966;2023-09-19T01:44:24;99646.23;;;21.05;69.16
77572;BME280;67214;47.454;18.966;2023-09-19T01:46:52;99646.73;;;20.98;69.52
77572;BME280;67214;47.454;18.966;2023-09-19T01:49:37;99639.95;;;20.91;69.75
77572;BME280;67214;47.454;18.966;2023-09-19T01:52:12;99646.88;;;20.83;69.95
77572;BME280;67214;47.454;18.966;2023-09-19T01:54:51;99649.55;;;20.76;70.35
77572;BME280;67214;47.454;18.966;2023-09-19T01:57:25;99651.92;;;20.75;69.70
77572;BME280;67214;47.454;18.966;2023-09-19T01:59:55;99647.09;;;20.81;69.32
77572;BME280;67214;47.454;18.966;2023-09-19T02:02:23;99648.44;;;20.81;69.89
77572;BME280;67214;47.454;18.966;2023-09-19T02:04:52;99648.85;;;20.78;69.70
77572;BME280;67214;47.454;18.966;2023-09-19T02:07:21;99644.67;;;20.76;69.71
77572;BME280;67214;47.454;18.966;2023-09-19T02:09:49;99642.39;;;20.73;70.41
77572;BME280;67214;47.454;18.966;2023-09-19T02:12:16;99645.09;;;20.73;70.18
77572;BME280;67214;47.454;18.966;2023-09-19T02:14:44;99649.54;;;20.70;70.15
77572;BME280;67214;47.454;18.966;2023-09-19T02:17:11;99649.31;;;20.71;69.87
77572;BME280;67214;47.454;18.966;2023-09-19T02:19:39;99646.95;;;20.72;69.96
77572;BME280;67214;47.454;18.966;2023-09-19T02:22:07;99649.22;;;20.69;70.16
77572;BME280;67214;47.454;18.966;2023-09-19T02:24:38;99642.89;;;20.66;70.92
77572;BME280;67214;47.454;18.966;2023-09-19T02:27:05;99648.36;;;20.62;71.37
77572;BME280;67214;47.454;18.966;2023-09-19T02:29:34;99637.13;;;20.58;71.01
77572;BME280;67214;47.454;18.966;2023-09-19T02:32:01;99644.03;;;20.50;71.08
77572;BME280;67214;47.454;18.966;2023-09-19T02:34:29;99640.08;;;20.46;71.78
77572;BME280;67214;47.454;18.966;2023-09-19T02:36:57;99650.31;;;20.40;71.60
77572;BME280;67214;47.454;18.966;2023-09-19T02:39:24;99646.55;;;20.34;72.22
77572;BME280;67214;47.454;18.966;2023-09-19T02:41:52;99648.34;;;20.27;72.54
77572;BME280;67214;47.454;18.966;2023-09-19T02:44:19;99645.22;;;20.24;72.65
77572;BME280;67214;47.454;18.966;2023-09-19T02:46:46;99656.58;;;20.19;72.97
77572;BME280;67214;47.454;18.966;2023-09-19T02:49:14;99652.52;;;20.13;73.27
77572;BME280;67214;47.454;18.966;2023-09-19T02:51:41;99656.92;;;20.10;73.07
77572;BME280;67214;47.454;18.966;2023-09-19T02:54:09;99654.52;;;20.04;73.65
77572;BME280;67214;47.454;18.966;2023-09-19T02:56:37;99649.91;;;19.98;73.94
77572;BME280;67214;47.454;18.966;2023-09-19T02:59:05;99644.97;;;20.19;72.75
77572;BME280;67214;47.454;18.966;2023-09-19T03:01:33;99641.49;;;20.08;73.65
77572;BME280;67214;47.454;18.966;2023-09-19T03:04:00;99637.97;;;20.07;72.96
77572;BME280;67214;47.454;18.966;2023-09-19T03:06:28;99636.30;;;20.06;73.51
77572;BME280;67214;47.454;18.966;2023-09-19T03:08:57;99645.72;;;20.06;73.30
77572;BME280;67214;47.454;18.966;2023-09-19T03:11:26;99651.69;;;20.02;73.24
77572;BME280;67214;47.454;18.966;2023-09-19T03:13:54;99656.23;;;20.01;73.22
77572;BME280;67214;47.454;18.966;2023-09-19T03:16:21;99652.02;;;20.03;73.23
77572;BME280;67214;47.454;18.966;2023-09-19T03:18:49;99658.08;;;20.11;73.01
77572;BME280;67214;47.454;18.966;2023-09-19T03:21:17;99659.03;;;20.14;72.43
77572;BME280;67214;47.454;18.966;2023-09-19T03:23:45;99645.91;;;20.22;72.37
77572;BME280;67214;47.454;18.966;2023-09-19T03:26:13;99638.67;;;20.22;72.12
77572;BME280;67214;47.454;18.966;2023-09-19T03:28:42;99646.89;;;20.25;71.91
77572;BME280;67214;47.454;18.966;2023-09-19T03:31:10;99646.89;;;20.25;71.85
77572;BME280;67214;47.454;18.966;2023-09-19T03:33:37;99650.28;;;20.23;71.93
77572;BME280;67214;47.454;18.966;2023-09-19T03:36:05;99652.02;;;20.30;71.64
77572;BME280;67214;47.454;18.966;2023-09-19T03:38:34;99654.28;;;20.44;70.93
77572;BME280;67214;47.454;18.966;2023-09-19T03:41:02;99656.22;;;20.39;71.16
77572;BME280;67214;47.454;18.966;2023-09-19T03:43:31;99652.16;;;20.33;71.69
77572;BME280;67214;47.454;18.966;2023-09-19T03:46:01;99654.55;;;20.38;71.49
77572;BME280;67214;47.454;18.966;2023-09-19T03:48:30;99651.76;;;20.60;70.39
77572;BME280;67214;47.454;18.966;2023-09-19T03:50:58;99650.75;;;20.67;70.11
77572;BME280;67214;47.454;18.966;2023-09-19T03:53:25;99642.98;;;20.68;70.23
77572;BME280;67214;47.454;18.966;2023-09-19T03:55:52;99659.09;;;20.55;70.71
77572;BME280;67214;47.454;18.966;2023-09-19T03:58:20;99661.34;;;20.45;71.34
77572;BME280;67214;47.454;18.966;2023-09-19T04:00:48;99659.34;;;20.43;71.32
77572;BME280;67214;47.454;18.966;2023-09-19T04:03:16;99661.70;;;20.42;71.52
77572;BME280;67214;47.454;18.966;2023-09-19T04:05:46;99664.30;;;20.39;71.76
77572;BME280;67214;47.454;18.966;2023-09-19T04:08:14;99667.39;;;20.54;70.95
77572;BME280;67214;47.454;18.966;2023-09-19T04:10:44;99664.78;;;20.50;71.07
77572;BME280;67214;47.454;18.966;2023-09-19T04:13:12;99660.77;;;20.39;71.66
77572;BME280;67214;47.454;18.966;2023-09-19T04:15:39;99667.94;;;20.43;71.53
77572;BME280;67214;47.454;18.966;2023-09-19T04:18:07;99660.07;;;20.41;71.65
77572;BME280;67214;47.454;18.966;2023-09-19T04:20:34;99666.64;;;20.32;72.10
77572;BME280;67214;47.454;18.966;2023-09-19T04:23:02;99668.03;;;20.28;72.30
77572;BME280;67214;47.454;18.966;2023-09-19T04:25:31;99661.44;;;20.30;72.42
77572;BME280;67214;47.454;18.966;2023-09-19T04:27:58;99670.78;;;20.34;72.31
77572;BME280;67214;47.454;18.966;2023-09-19T04:30:26;99680.48;;;20.46;72.19
77572;BME280;67214;47.454;18.966;2023-09-19T04:32:53;99687.06;;;20.54;72.06
77572;BME280;67214;47.454;18.966;2023-09-19T04:35:21;99686.95;;;20.52;72.34
77572;BME280;67214;47.454;18.966;2023-09-19T04:37:49;99680.97;;;20.56;72.56
77572;BME280;67214;47.454;18.966;2023-09-19T04:40:17;99698.38;;;20.54;72.23
77572;BME280;67214;47.454;18.966;2023-09-19T04:42:45;99689.84;;;20.50;70.86
77572;BME280;67214;47.454;18.966;2023-09-19T04:45:14;99708.91;;;20.49;70.60
77572;BME280;67214;47.454;18.966;2023-09-19T04:47:42;99703.47;;;20.42;70.30
77572;BME280;67214;47.454;18.966;2023-09-19T04:50:10;99711.77;;;20.40;70.18
77572;BME280;67214;47.454;18.966;2023-09-19T04:52:43;99710.42;;;20.40;69.89
77572;BME280;67214;47.454;18.966;2023-09-19T04:55:12;99716.91;;;20.25;70.55
77572;BME280;67214;47.454;18.966;2023-09-19T04:57:42;99713.32;;;20.18;71.02
77572;BME280;67214;47.454;18.966;2023-09-19T05:00:12;99718.34;;;20.21;71.28
77572;BME280;67214;47.454;18.966;2023-09-19T05:02:41;99711.75;;;20.13;71.87
77572;BME280;67214;47.454;18.966;2023-09-19T05:05:09;99725.75;;;19.91;72.62
77572;BME280;67214;47.454;18.966;2023-09-19T05:07:42;99728.97;;;19.80;73.17
77572;BME280;67214;47.454;18.966;2023-09-19T05:10:13;99725.11;;;19.57;74.22
77572;BME280;67214;47.454;18.966;2023-09-19T05:12:42;99733.91;;;19.55;74.34
77572;BME280;67214;47.454;18.966;2023-09-19T05:15:11;99742.55;;;19.51;74.68
77572;BME280;67214;47.454;18.966;2023-09-19T05:17:38;99730.70;;;19.41;74.87
77572;BME280;67214;47.454;18.966;2023-09-19T05:20:06;99741.08;;;19.33;75.20
77572;BME280;67214;47.454;18.966;2023-09-19T05:22:44;99743.31;;;19.30;74.83
77572;BME280;67214;47.454;18.966;2023-09-19T05:25:12;99761.06;;;19.35;74.94
77572;BME280;67214;47.454;18.966;2023-09-19T05:27:44;99761.13;;;19.16;74.57
77572;BME280;67214;47.454;18.966;2023-09-19T05:30:12;99754.58;;;19.04;74.66
77572;BME280;67214;47.454;18.966;2023-09-19T05:32:41;99760.45;;;19.03;74.71
77572;BME280;67214;47.454;18.966;2023-09-19T05:35:09;99762.23;;;18.96;74.98
77572;BME280;67214;47.454;18.966;2023-09-19T05:37:38;99762.62;;;18.93;75.17
77572;BME280;67214;47.454;18.966;2023-09-19T05:40:07;99764.19;;;18.88;75.04
77572;BME280;67214;47.454;18.966;2023-09-19T05:42:36;99757.34;;;18.85;75.23
77572;BME280;67214;47.454;18.966;2023-09-19T05:45:04;99742.39;;;18.87;75.02
77572;BME280;67214;47.454;18.966;2023-09-19T05:47:33;99742.33;;;18.76;75.13
77572;BME280;67214;47.454;18.966;2023-09-19T05:50:00;99757.72;;;18.82;75.21
77572;BME280;67214;47.454;18.966;2023-09-19T05:52:29;99773.69;;;18.80;75.08
77572;BME280;67214;47.454;18.966;2023-09-19T05:54:56;99775.69;;;18.82;75.38
77572;BME280;67214;47.454;18.966;2023-09-19T05:57:24;99772.72;;;18.77;75.29
77572;BME280;67214;47.454;18.966;2023-09-19T05:59:51;99768.45;;;18.68;75.82
77572;BME280;67214;47.454;18.966;2023-09-19T06:02:18;99757.53;;;18.69;75.56
77572;BME280;67214;47.454;18.966;2023-09-19T06:04:46;99751.36;;;18.65;75.58
77572;BME280;67214;47.454;18.966;2023-09-19T06:07:13;99760.69;;;18.58;76.13
77572;BME280;67214;47.454;18.966;2023-09-19T06:09:42;99771.64;;;18.67;75.99
77572;BME280;67214;47.454;18.966;2023-09-19T06:12:10;99752.97;;;18.55;76.19
77572;BME280;67214;47.454;18.966;2023-09-19T06:14:39;99772.87;;;18.46;76.88
77572;BME280;67214;47.454;18.966;2023-09-19T06:17:07;99777.70;;;18.46;77.30
77572;BME280;67214;47.454;18.966;2023-09-19T06:19:34;99774.30;;;18.38;78.19
77572;BME280;67214;47.454;18.966;2023-09-19T06:22:02;99776.64;;;18.37;78.53
77572;BME280;67214;47.454;18.966;2023-09-19T06:24:30;99795.84;;;18.30;78.58
77572;BME280;67214;47.454;18.966;2023-09-19T06:26:57;99792.03;;;18.24;78.76
77572;BME280;67214;47.454;18.966;2023-09-19T06:29:26;99797.44;;;18.20;78.92
77572;BME280;67214;47.454;18.966;2023-09-19T06:31:54;99782.88;;;18.15;79.48
77572;BME280;67214;47.454;18.966;2023-09-19T06:34:21;99804.82;;;18.18;79.93
77572;BME280;67214;47.454;18.966;2023-09-19T06:36:49;99807.41;;;18.11;80.83
77572;BME280;67214;47.454;18.966;2023-09-19T06:39:18;99808.95;;;18.06;81.35
77572;BME280;67214;47.454;18.966;2023-09-19T06:41:45;99814.24;;;17.95;81.77
77572;BME280;67214;47.454;18.966;2023-09-19T06:44:13;99816.17;;;17.83;82.88
77572;BME280;67214;47.454;18.966;2023-09-19T06:46:41;99803.13;;;17.80;83.33
77572;BME280;67214;47.454;18.966;2023-09-19T06:49:10;99809.38;;;17.72;84.15
77572;BME280;67214;47.454;18.966;2023-09-19T06:51:39;99819.80;;;17.67;84.63
77572;BME280;67214;47.454;18.966;2023-09-19T06:54:08;99823.69;;;17.64;85.34
77572;BME280;67214;47.454;18.966;2023-09-19T06:56:35;99831.58;;;17.54;86.25
77572;BME280;67214;47.454;18.966;2023-09-19T06:59:03;99845.72;;;17.44;87.29
77572;BME280;67214;47.454;18.966;2023-09-19T07:01:32;99845.02;;;17.46;87.08
77572;BME280;67214;47.454;18.966;2023-09-19T07:04:00;99857.95;;;17.42;87.60
77572;BME280;67214;47.454;18.966;2023-09-19T07:06:27;99849.06;;;17.42;87.95
77572;BME280;67214;47.454;18.966;2023-09-19T07:08:55;99864.30;;;17.45;87.84
77572;BME280;67214;47.454;18.966;2023-09-19T07:11:22;99859.75;;;17.50;87.61
77572;BME280;67214;47.454;18.966;2023-09-19T07:13:50;99859.06;;;17.56;87.44
77572;BME280;67214;47.454;18.966;2023-09-19T07:16:18;99866.09;;;17.61;87.30
77572;BME280;67214;47.454;18.966;2023-09-19T07:18:47;99858.90;;;17.57;88.44
77572;BME280;67214;47.454;18.966;2023-09-19T07:21:14;99865.79;;;17.52;88.50
77572;BME280;67214;47.454;18.966;2023-09-19T07:23:42;99862.29;;;17.47;89.13
77572;BME280;67214;47.454;18.966;2023-09-19T07:26:09;99860.95;;;17.47;89.04
77572;BME280;67214;47.454;18.966;2023-09-19T07:28:37;99854.27;;;17.43;89.66
77572;BME280;67214;47.454;18.966;2023-09-19T07:31:04;99864.30;;;17.45;89.35
77572;BME280;67214;47.454;18.966;2023-09-19T07:33:33;99857.27;;;17.40;88.87
77572;BME280;67214;47.454;18.966;2023-09-19T07:36:00;99862.13;;;17.41;88.55
77572;BME280;67214;47.454;18.966;2023-09-19T07:38:28;99863.20;;;17.32;89.81
77572;BME280;67214;47.454;18.966;2023-09-19T07:41:00;99862.36;;;17.31;90.62
77572;BME280;67214;47.454;18.966;2023-09-19T07:43:28;99877.09;;;17.35;90.02
77572;BME280;67214;47.454;18.966;2023-09-19T07:45:57;99879.11;;;17.29;90.37
77572;BME280;67214;47.454;18.966;2023-09-19T07:48:26;99873.24;;;17.30;90.60
77572;BME280;67214;47.454;18.966;2023-09-19T07:50:53;99882.09;;;17.38;91.25
77572;BME280;67214;47.454;18.966;2023-09-19T07:53:21;99883.59;;;17.37;89.84
77572;BME280;67214;47.454;18.966;2023-09-19T07:55:48;99891.33;;;17.36;90.01
77572;BME280;67214;47.454;18.966;2023-09-19T07:58:16;99901.84;;;17.41;89.35
77572;BME280;67214;47.454;18.966;2023-09-19T08:00:43;99906.22;;;17.38;89.30
77572;BME280;67214;47.454;18.966;2023-09-19T08:03:12;99901.83;;;17.45;88.80
77572;BME280;67214;47.454;18.966;2023-09-19T08:05:41;99907.17;;;17.49;89.37
77572;BME280;67214;47.454;18.966;2023-09-19T08:08:09;99913.55;;;17.52;88.59
77572;BME280;67214;47.454;18.966;2023-09-19T08:10:38;99916.05;;;17.54;88.76
77572;BME280;67214;47.454;18.966;2023-09-19T08:13:08;99919.58;;;17.58;88.13
77572;BME280;67214;47.454;18.966;2023-09-19T08:15:42;99925.75;;;17.67;88.73
77572;BME280;67214;47.454;18.966;2023-09-19T08:18:09;99930.42;;;17.69;88.55
77572;BME280;67214;47.454;18.966;2023-09-19T08:20:39;99934.28;;;17.71;88.37
77572;BME280;67214;47.454;18.966;2023-09-19T08:23:08;99931.45;;;17.68;87.83
77572;BME280;67214;47.454;18.966;2023-09-19T08:25:35;99931.94;;;17.72;87.53
77572;BME280;67214;47.454;18.966;2023-09-19T08:28:05;99943.13;;;17.79;88.12
77572;BME280;67214;47.454;18.966;2023-09-19T08:30:34;99939.94;;;17.80;87.81
77572;BME280;67214;47.454;18.966;2023-09-19T08:33:04;99947.09;;;17.91;86.92
77572;BME280;67214;47.454;18.966;2023-09-19T08:35:31;99948.58;;;17.94;86.14
77572;BME280;67214;47.454;18.966;2023-09-19T08:37:59;99958.59;;;18.04;87.16
77572;BME280;67214;47.454;18.966;2023-09-19T08:40:30;99968.11;;;18.10;87.11
77572;BME280;67214;47.454;18.966;2023-09-19T08:43:00;99968.04;;;18.23;87.70
77572;BME280;67214;47.454;18.966;2023-09-19T08:45:28;99977.18;;;18.14;86.26
77572;BME280;67214;47.454;18.966;2023-09-19T08:53:36;100001.04;;;18.04;86.54
77572;BME280;67214;47.454;18.966;2023-09-19T08:56:00;100008.05;;;18.05;87.11
77572;BME280;67214;47.454;18.966;2023-09-19T08:58:31;100019.79;;;18.13;87.37
77572;BME280;67214;47.454;18.966;2023-09-19T09:01:01;100017.45;;;18.05;87.75
77572;BME280;67214;47.454;18.966;2023-09-19T09:03:33;100020.27;;;18.16;88.66
77572;BME280;67214;47.454;18.966;2023-09-19T09:06:02;100013.20;;;18.19;88.88
77572;BME280;67214;47.454;18.966;2023-09-19T09:08:31;99999.97;;;18.18;89.04
77572;BME280;67214;47.454;18.966;2023-09-19T09:10:59;99996.38;;;18.29;89.85
77572;BME280;67214;47.454;18.966;2023-09-19T09:13:27;99987.15;;;18.28;89.24
77572;BME280;67214;47.454;18.966;2023-09-19T09:15:55;99983.45;;;18.29;88.26
77572;BME280;67214;47.454;18.966;2023-09-19T09:18:23;99969.14;;;18.36;88.77
77572;BME280;67214;47.454;18.966;2023-09-19T09:20:50;99947.49;;;18.38;89.82
77572;BME280;67214;47.454;18.966;2023-09-19T09:23:17;99938.29;;;18.32;88.78
77572;BME280;67214;47.454;18.966;2023-09-19T09:25:55;99943.38;;;18.54;89.32
77572;BME280;67214;47.454;18.966;2023-09-19T09:28:25;99936.29;;;18.57;87.53
77572;BME280;67214;47.454;18.966;2023-09-19T09:30:53;99936.12;;;18.50;87.24
77572;BME280;67214;47.454;18.966;2023-09-19T09:33:21;99944.58;;;18.43;88.52
77572;BME280;67214;47.454;18.966;2023-09-19T09:35:53;99938.84;;;18.46;88.44
77572;BME280;67214;47.454;18.966;2023-09-19T09:38:25;99949.55;;;18.54;88.89
77572;BME280;67214;47.454;18.966;2023-09-19T09:40:57;99949.08;;;18.47;87.97
77572;BME280;67214;47.454;18.966;2023-09-19T09:43:31;99964.55;;;18.45;88.43
77572;BME280;67214;47.454;18.966;2023-09-19T09:46:14;99967.77;;;18.40;88.23
77572;BME280;67214;47.454;18.966;2023-09-19T09:48:58;99982.42;;;18.34;87.79
77572;BME280;67214;47.454;18.966;2023-09-19T09:51:50;99987.58;;;18.39;88.98
77572;BME280;67214;47.454;18.966;2023-09-19T09:54:37;99981.78;;;18.50;90.10
77572;BME280;67214;47.454;18.966;2023-09-19T09:57:09;99971.58;;;18.54;88.91
77572;BME280;67214;47.454;18.966;2023-09-19T09:59:52;99974.53;;;18.59;87.39
77572;BME280;67214;47.454;18.966;2023-09-19T10:02:29;99972.42;;;18.73;87.94
77572;BME280;67214;47.454;18.966;2023-09-19T10:04:59;99972.64;;;19.05;86.31
77572;BME280;67214;47.454;18.966;2023-09-19T10:07:36;99977.23;;;19.19;86.06
77572;BME280;67214;47.454;18.966;2023-09-19T10:10:06;99972.14;;;19.39;85.29
77572;BME280;67214;47.454;18.966;2023-09-19T10:12:43;99974.12;;;19.41;84.33
77572;BME280;67214;47.454;18.966;2023-09-19T10:15:12;99978.02;;;19.42;84.16
77572;BME280;67214;47.454;18.966;2023-09-19T10:17:46;99977.38;;;19.55;83.52
77572;BME280;67214;47.454;18.966;2023-09-19T10:20:19;99987.16;;;19.67;82.52
77572;BME280;67214;47.454;18.966;2023-09-19T10:23:09;99974.64;;;19.59;82.68
77572;BME280;67214;47.454;18.966;2023-09-19T10:25:41;99986.14;;;19.68;83.36
77572;BME280;67214;47.454;18.966;2023-09-19T10:28:11;99991.35;;;19.94;83.05
77572;BME280;67214;47.454;18.966;2023-09-19T10:30:43;99996.78;;;19.90;83.22
77572;BME280;67214;47.454;18.966;2023-09-19T10:33:12;99988.94;;;19.85;83.08
77572;BME280;67214;47.454;18.966;2023-09-19T10:35:42;100004.68;;;19.77;82.26
77572;BME280;67214;47.454;18.966;2023-09-19T10:38:11;99992.17;;;19.84;82.33
77572;BME280;67214;47.454;18.966;2023-09-19T10:40:39;99997.60;;;19.80;82.36
77572;BME280;67214;47.454;18.966;2023-09-19T10:43:11;99993.81;;;19.85;82.78
77572;BME280;67214;47.454;18.966;2023-09-19T10:45:40;100007.07;;;19.76;81.26
77572;BME280;67214;47.454;18.966;2023-09-19T10:48:09;99990.86;;;19.66;80.58
77572;BME280;67214;47.454;18.966;2023-09-19T10:50:44;99999.34;;;19.73;82.19
77572;BME280;67214;47.454;18.966;2023-09-19T10:53:13;100005.44;;;19.71;81.25
77572;BME280;67214;47.454;18.966;2023-09-19T10:55:57;99996.91;;;19.93;82.11
77572;BME280;67214;47.454;18.966;2023-09-19T10:58:32;100010.14;;;19.99;80.57
77572;BME280;67214;47.454;18.966;2023-09-19T11:00:59;100005.72;;;20.16;80.04
77572;BME280;67214;47.454;18.966;2023-09-19T11:03:34;100015.42;;;20.21;78.90
77572;BME280;67214;47.454;18.966;2023-09-19T11:06:17;100018.61;;;20.35;77.80
77572;BME280;67214;47.454;18.966;2023-09-19T11:08:57;100023.40;;;20.65;76.28
77572;BME280;67214;47.454;18.966;2023-09-19T11:11:44;100017.28;;;21.31;73.37
77572;BME280;67214;47.454;18.966;2023-09-19T11:30:43;100008.69;;;22.98;63.00
77572;BME280;67214;47.454;18.966;2023-09-19T11:33:24;100002.73;;;23.57;61.74
77572;BME280;67214;47.454;18.966;2023-09-19T11:36:04;100004.41;;;23.39;60.95
77572;BME280;67214;47.454;18.966;2023-09-19T11:46:53;99996.83;;;22.55;62.32
77572;BME280;67214;47.454;18.966;2023-09-19T11:49:32;99998.03;;;22.33;63.20
77572;BME280;67214;47.454;18.966;2023-09-19T11:52:01;100006.45;;;22.71;62.52
77572;BME280;67214;47.454;18.966;2023-09-19T11:54:32;99995.99;;;22.55;62.26
77572;BME280;67214;47.454;18.966;2023-09-19T11:57:00;99990.14;;;22.95;61.58
77572;BME280;67214;47.454;18.966;2023-09-19T11:59:29;99991.71;;;23.00;62.54
77572;BME280;67214;47.454;18.966;2023-09-19T12:02:01;99993.50;;;23.10;60.95
77572;BME280;67214;47.454;18.966;2023-09-19T12:04:40;99986.08;;;22.95;61.88
77572;BME280;67214;47.454;18.966;2023-09-19T12:07:11;100000.46;;;22.52;61.93
77572;BME280;67214;47.454;18.966;2023-09-19T12:09:43;99989.73;;;22.78;61.09
77572;BME280;67214;47.454;18.966;2023-09-19T12:12:24;99984.05;;;22.60;61.63
77572;BME280;67214;47.454;18.966;2023-09-19T12:14:55;99983.58;;;22.87;61.10
77572;BME280;67214;47.454;18.966;2023-09-19T12:17:40;99988.29;;;22.82;61.37
77572;BME280;67214;47.454;18.966;2023-09-19T12:20:09;99993.78;;;23.11;60.39
77572;BME280;67214;47.454;18.966;2023-09-19T12:22:42;99991.93;;;23.05;59.68
77572;BME280;67214;47.454;18.966;2023-09-19T12:25:13;99992.13;;;23.49;58.94
77572;BME280;67214;47.454;18.966;2023-09-19T12:27:46;100007.94;;;23.52;58.29
77572;BME280;67214;47.454;18.966;2023-09-19T12:30:16;99999.28;;;23.66;59.31
77572;BME280;67214;47.454;18.966;2023-09-19T12:32:46;100001.09;;;23.92;58.89
77572;BME280;67214;47.454;18.966;2023-09-19T12:35:28;100006.14;;;23.75;58.25
77572;BME280;67214;47.454;18.966;2023-09-19T12:37:56;100004.11;;;23.31;59.71
77572;BME280;67214;47.454;18.966;2023-09-19T12:40:25;99998.88;;;23.56;58.42
77572;BME280;67214;47.454;18.966;2023-09-19T12:42:57;100017.95;;;24.00;57.25
77572;BME280;67214;47.454;18.966;2023-09-19T12:45:25;100007.39;;;24.01;57.08
77572;BME280;67214;47.454;18.966;2023-09-19T12:48:18;100011.77;;;24.02;57.49
77572;BME280;67214;47.454;18.966;2023-09-19T12:51:09;100013.31;;;24.21;56.09
77572;BME280;67214;47.454;18.966;2023-09-19T12:53:44;100006.56;;;24.01;56.12
77572;BME280;67214;47.454;18.966;2023-09-19T12:56:14;100014.19;;;23.20;58.80
77572;BME280;67214;47.454;18.966;2023-09-19T12:58:53;100009.98;;;24.05;55.82
77572;BME280;67214;47.454;18.966;2023-09-19T13:01:21;100001.81;;;23.22;57.31
77572;BME280;67214;47.454;18.966;2023-09-19T13:04:12;100000.99;;;25.19;52.78
77572;BME280;67214;47.454;18.966;2023-09-19T13:06:41;99989.70;;;25.56;52.15
77572;BME280;67214;47.454;18.966;2023-09-19T13:09:10;100003.16;;;26.05;50.56
77572;BME280;67214;47.454;18.966;2023-09-19T13:11:38;99999.26;;;26.49;49.42
77572;BME280;67214;47.454;18.966;2023-09-19T13:14:27;99993.03;;;26.69;48.12
77572;BME280;67214;47.454;18.966;2023-09-19T13:17:04;99982.94;;;26.49;49.22
77572;BME280;67214;47.454;18.966;2023-09-19T13:19:44;100014.56;;;26.14;48.93
77572;BME280;67214;47.454;18.966;2023-09-19T13:22:41;100010.34;;;27.07;45.85
77572;BME280;67214;47.454;18.966;2023-09-19T13:25:16;100005.02;;;27.56;45.24
77572;BME280;67214;47.454;18.966;2023-09-19T13:27:48;100005.02;;;27.56;45.24
77572;BME280;67214;47.454;18.966;2023-09-19T13:30:22;100005.06;;;26.32;48.26
77572;BME280;67214;47.454;18.966;2023-09-19T13:32:52;100012.25;;;26.86;47.18
77572;BME280;67214;47.454;18.966;2023-09-19T13:35:20;100007.33;;;25.89;49.39
77572;BME280;67214;47.454;18.966;2023-09-19T13:37:48;100009.86;;;24.76;53.37
77572;BME280;67214;47.454;18.966;2023-09-19T13:40:17;100009.86;;;24.76;53.37
77572;BME280;67214;47.454;18.966;2023-09-19T13:42:45;100017.03;;;24.64;53.87
77572;BME280;67214;47.454;18.966;2023-09-19T13:45:12;100026.66;;;24.38;55.24
77572;BME280;67214;47.454;18.966;2023-09-19T13:47:41;100037.17;;;23.73;57.19
77572;BME280;67214;47.454;18.966;2023-09-19T13:50:09;100033.42;;;24.09;55.78